sensor_id;sensor_type;location;lat;lon;timestamp;temperature;humidity
47618;DHT22;33336;36.728;-4.414;2023-06-04T00:01:24;22.50;99.90
47618;DHT22;33336;36.728;-4.414;2023-06-04T00:06:27;22.40;99.90
47618;DHT22;33336;36.728;-4.414;2023-06-04T00:11:30;22.30;99.90
47618;DHT22;33336;36.728;-4.414;2023-06-04T00:16:50;22.60;99.90
47618;DHT22;33336;36.728;-4.414;2023-06-04T00:21:59;22.60;99.90
47618;DHT22;33336;36.728;-4.414;2023-06-04T00:27:37;22.70;99.90
47618;DHT22;33336;36.728;-4.414;2023-06-04T00:33:06;22.20;99.90
47618;DHT22;33336;36.728;-4.414;2023-06-04T00:38:24;22.50;99.90
47618;DHT22;33336;36.728;-4.414;2023-06-04T00:43:38;22.40;99.90
47618;DHT22;33336;36.728;-4.414;2023-06-04T00:48:43;22.50;99.90
47618;DHT22;33336;36.728;-4.414;2023-06-04T00:53:50;22.40;99.90
47618;DHT22;33336;36.728;-4.414;2023-06-04T00:58:55;22.60;99.90
47618;DHT22;33336;36.728;-4.414;2023-06-04T01:04:00;22.50;99.90
47618;DHT22;33336;36.728;-4.414;2023-06-04T01:09:06;22.50;99.90
47618;DHT22;33336;36.728;-4.414;2023-06-04T01:14:10;21.70;99.90
47618;DHT22;33336;36.728;-4.414;2023-06-04T01:19:47;21.60;99.90
47618;DHT22;33336;36.728;-4.414;2023-06-04T01:25:04;22.00;99.90
47618;DHT22;33336;36.728;-4.414;2023-06-04T01:30:25;22.00;99.90
47618;DHT22;33336;36.728;-4.414;2023-06-04T01:35:30;22.00;99.90
47618;DHT22;33336;36.728;-4.414;2023-06-04T01:40:36;21.50;99.90
47618;DHT22;33336;36.728;-4.414;2023-06-04T01:45:39;21.50;99.90
47618;DHT22;33336;36.728;-4.414;2023-06-04T01:50:44;22.00;99.90
47618;DHT22;33336;36.728;-4.414;2023-06-04T01:55:47;22.10;99.90
47618;DHT22;33336;36.728;-4.414;2023-06-04T02:00:50;22.10;99.90
47618;DHT22;33336;36.728;-4.414;2023-06-04T02:05:55;21.40;99.90
47618;DHT22;33336;36.728;-4.414;2023-06-04T02:10:58;21.30;99.90
47618;DHT22;33336;36.728;-4.414;2023-06-04T02:16:01;21.20;99.90
47618;DHT22;33336;36.728;-4.414;2023-06-04T02:21:06;21.40;99.90
47618;DHT22;33336;36.728;-4.414;2023-06-04T02:26:09;21.40;99.90
47618;DHT22;33336;36.728;-4.414;2023-06-04T02:31:12;21.30;99.90
47618;DHT22;33336;36.728;-4.414;2023-06-04T02:36:17;21.50;99.90
47618;DHT22;33336;36.728;-4.414;2023-06-04T02:41:20;21.60;99.90
47618;DHT22;33336;36.728;-4.414;2023-06-04T02:46:24;21.60;99.90
47618;DHT22;33336;36.728;-4.414;2023-06-04T02:51:29;21.50;99.90
47618;DHT22;33336;36.728;-4.414;2023-06-04T02:56:33;21.60;99.90
47618;DHT22;33336;36.728;-4.414;2023-06-04T03:01:36;21.60;99.90
47618;DHT22;33336;36.728;-4.414;2023-06-04T03:06:41;21.10;99.90
47618;DHT22;33336;36.728;-4.414;2023-06-04T03:11:46;21.50;99.90
47618;DHT22;33336;36.728;-4.414;2023-06-04T03:16:49;21.10;99.90
47618;DHT22;33336;36.728;-4.414;2023-06-04T03:21:55;20.60;99.90
47618;DHT22;33336;36.728;-4.414;2023-06-04T03:26:58;20.70;99.90
47618;DHT22;33336;36.728;-4.414;2023-06-04T03:32:02;20.50;99.90
47618;DHT22;33336;36.728;-4.414;2023-06-04T03:37:06;20.80;99.90
47618;DHT22;33336;36.728;-4.414;2023-06-04T03:42:09;21.00;99.90
47618;DHT22;33336;36.728;-4.414;2023-06-04T03:47:12;21.20;99.90
47618;DHT22;33336;36.728;-4.414;2023-06-04T03:52:16;21.40;99.90
47618;DHT22;33336;36.728;-4.414;2023-06-04T03:57:19;21.40;99.90
47618;DHT22;33336;36.728;-4.414;2023-06-04T04:02:22;21.40;99.90
47618;DHT22;33336;36.728;-4.414;2023-06-04T04:07:26;21.40;99.90
47618;DHT22;33336;36.728;-4.414;2023-06-04T04:12:31;21.40;99.90
47618;DHT22;33336;36.728;-4.414;2023-06-04T04:17:34;21.20;99.90
47618;DHT22;33336;36.728;-4.414;2023-06-04T04:22:41;20.20;99.90
47618;DHT22;33336;36.728;-4.414;2023-06-04T04:27:44;20.60;99.90
47618;DHT22;33336;36.728;-4.414;2023-06-04T04:32:46;20.90;99.90
47618;DHT22;33336;36.728;-4.414;2023-06-04T04:37:53;21.10;99.90
47618;DHT22;33336;36.728;-4.414;2023-06-04T04:42:57;21.20;99.90
47618;DHT22;33336;36.728;-4.414;2023-06-04T04:48:00;21.10;99.90
47618;DHT22;33336;36.728;-4.414;2023-06-04T04:53:04;21.20;99.90
47618;DHT22;33336;36.728;-4.414;2023-06-04T04:58:08;21.20;99.90
47618;DHT22;33336;36.728;-4.414;2023-06-04T05:03:11;21.20;99.90
47618;DHT22;33336;36.728;-4.414;2023-06-04T05:08:16;21.10;99.90
47618;DHT22;33336;36.728;-4.414;2023-06-04T05:13:21;21.20;99.90
47618;DHT22;33336;36.728;-4.414;2023-06-04T05:18:24;21.40;99.90
47618;DHT22;33336;36.728;-4.414;2023-06-04T05:23:31;21.20;99.90
47618;DHT22;33336;36.728;-4.414;2023-06-04T05:28:36;21.30;99.90
47618;DHT22;33336;36.728;-4.414;2023-06-04T05:33:48;21.20;99.90
47618;DHT22;33336;36.728;-4.414;2023-06-04T05:38:53;21.30;99.90
47618;DHT22;33336;36.728;-4.414;2023-06-04T05:43:58;21.30;99.90
47618;DHT22;33336;36.728;-4.414;2023-06-04T05:49:02;21.00;99.90
47618;DHT22;33336;36.728;-4.414;2023-06-04T05:54:07;21.10;99.90
47618;DHT22;33336;36.728;-4.414;2023-06-04T05:59:10;21.20;99.90
47618;DHT22;33336;36.728;-4.414;2023-06-04T06:04:13;21.30;99.90
47618;DHT22;33336;36.728;-4.414;2023-06-04T06:09:20;21.40;99.90
47618;DHT22;33336;36.728;-4.414;2023-06-04T06:14:23;21.20;99.90
47618;DHT22;33336;36.728;-4.414;2023-06-04T06:19:26;20.90;99.90
47618;DHT22;33336;36.728;-4.414;2023-06-04T06:24:31;20.90;99.90
47618;DHT22;33336;36.728;-4.414;2023-06-04T06:29:34;21.40;99.90
47618;DHT22;33336;36.728;-4.414;2023-06-04T06:34:37;21.30;99.90
47618;DHT22;33336;36.728;-4.414;2023-06-04T06:39:42;21.10;99.90
47618;DHT22;33336;36.728;-4.414;2023-06-04T06:44:45;21.50;99.90
47618;DHT22;33336;36.728;-4.414;2023-06-04T06:49:48;21.50;99.90
47618;DHT22;33336;36.728;-4.414;2023-06-04T06:54:53;21.60;99.90
47618;DHT22;33336;36.728;-4.414;2023-06-04T06:59:56;21.70;99.90
47618;DHT22;33336;36.728;-4.414;2023-06-04T07:04:59;21.80;99.90
47618;DHT22;33336;36.728;-4.414;2023-06-04T07:10:05;22.00;99.90
47618;DHT22;33336;36.728;-4.414;2023-06-04T07:15:09;22.30;99.90
47618;DHT22;33336;36.728;-4.414;2023-06-04T07:20:12;22.50;99.90
47618;DHT22;33336;36.728;-4.414;2023-06-04T07:25:17;23.00;99.60
47618;DHT22;33336;36.728;-4.414;2023-06-04T07:30:20;23.30;99.30
47618;DHT22;33336;36.728;-4.414;2023-06-04T07:35:23;23.60;98.90
47618;DHT22;33336;36.728;-4.414;2023-06-04T07:40:28;23.70;98.50
47618;DHT22;33336;36.728;-4.414;2023-06-04T07:45:31;23.80;98.10
47618;DHT22;33336;36.728;-4.414;2023-06-04T07:50:34;23.50;99.00
47618;DHT22;33336;36.728;-4.414;2023-06-04T07:55:38;23.00;99.90
47618;DHT22;33336;36.728;-4.414;2023-06-04T08:00:42;22.90;99.90
47618;DHT22;33336;36.728;-4.414;2023-06-04T08:05:45;22.90;99.90
47618;DHT22;33336;36.728;-4.414;2023-06-04T08:10:50;23.30;99.90
47618;DHT22;33336;36.728;-4.414;2023-06-04T08:15:52;23.20;99.90
47618;DHT22;33336;36.728;-4.414;2023-06-04T08:20:55;23.00;99.90
47618;DHT22;33336;36.728;-4.414;2023-06-04T08:26:00;23.00;99.90
47618;DHT22;33336;36.728;-4.414;2023-06-04T08:31:03;23.20;99.90
47618;DHT22;33336;36.728;-4.414;2023-06-04T08:36:06;23.30;99.90
47618;DHT22;33336;36.728;-4.414;2023-06-04T08:41:15;23.10;99.90
47618;DHT22;33336;36.728;-4.414;2023-06-04T08:46:18;23.70;99.90
47618;DHT22;33336;36.728;-4.414;2023-06-04T08:51:21;23.80;99.90
47618;DHT22;33336;36.728;-4.414;2023-06-04T08:56:25;23.60;99.90
47618;DHT22;33336;36.728;-4.414;2023-06-04T09:01:31;23.00;99.90
47618;DHT22;33336;36.728;-4.414;2023-06-04T09:06:35;23.30;99.90
47618;DHT22;33336;36.728;-4.414;2023-06-04T09:11:44;23.20;99.90
47618;DHT22;33336;36.728;-4.414;2023-06-04T09:16:49;23.10;99.90
47618;DHT22;33336;36.728;-4.414;2023-06-04T09:21:55;23.40;99.90
47618;DHT22;33336;36.728;-4.414;2023-06-04T09:27:09;23.40;99.90
47618;DHT22;33336;36.728;-4.414;2023-06-04T09:32:12;23.80;99.90
47618;DHT22;33336;36.728;-4.414;2023-06-04T09:37:15;23.40;99.90
47618;DHT22;33336;36.728;-4.414;2023-06-04T09:42:20;23.00;99.90
47618;DHT22;33336;36.728;-4.414;2023-06-04T09:47:22;23.20;99.90
47618;DHT22;33336;36.728;-4.414;2023-06-04T09:52:32;23.90;99.90
47618;DHT22;33336;36.728;-4.414;2023-06-04T09:57:37;24.30;99.90
47618;DHT22;33336;36.728;-4.414;2023-06-04T10:02:44;24.50;99.90
47618;DHT22;33336;36.728;-4.414;2023-06-04T10:07:47;23.90;99.90
47618;DHT22;33336;36.728;-4.414;2023-06-04T10:13:00;23.80;99.90
47618;DHT22;33336;36.728;-4.414;2023-06-04T10:18:03;24.50;99.90
47618;DHT22;33336;36.728;-4.414;2023-06-04T10:23:07;24.00;99.90
47618;DHT22;33336;36.728;-4.414;2023-06-04T10:28:12;23.80;99.90
47618;DHT22;33336;36.728;-4.414;2023-06-04T10:33:16;23.90;99.90
47618;DHT22;33336;36.728;-4.414;2023-06-04T10:38:19;24.30;99.90
47618;DHT22;33336;36.728;-4.414;2023-06-04T10:43:30;24.80;99.90
47618;DHT22;33336;36.728;-4.414;2023-06-04T10:48:33;24.80;99.90
47618;DHT22;33336;36.728;-4.414;2023-06-04T10:53:37;24.30;99.90
47618;DHT22;33336;36.728;-4.414;2023-06-04T10:58:41;24.10;99.90
47618;DHT22;33336;36.728;-4.414;2023-06-04T11:03:45;23.80;99.90
47618;DHT22;33336;36.728;-4.414;2023-06-04T11:08:48;24.00;99.90
47618;DHT22;33336;36.728;-4.414;2023-06-04T11:13:54;23.90;99.90
47618;DHT22;33336;36.728;-4.414;2023-06-04T11:18:57;24.80;99.90
47618;DHT22;33336;36.728;-4.414;2023-06-04T11:24:01;25.30;99.90
47618;DHT22;33336;36.728;-4.414;2023-06-04T11:29:07;24.60;99.90
47618;DHT22;33336;36.728;-4.414;2023-06-04T11:34:22;24.70;99.90
47618;DHT22;33336;36.728;-4.414;2023-06-04T11:39:34;25.50;99.90
47618;DHT22;33336;36.728;-4.414;2023-06-04T11:44:43;25.50;99.90
47618;DHT22;33336;36.728;-4.414;2023-06-04T11:49:54;24.80;99.90
47618;DHT22;33336;36.728;-4.414;2023-06-04T11:54:58;24.10;99.90
47618;DHT22;33336;36.728;-4.414;2023-06-04T12:00:03;24.80;99.90
47618;DHT22;33336;36.728;-4.414;2023-06-04T12:05:12;25.50;99.90
47618;DHT22;33336;36.728;-4.414;2023-06-04T12:10:15;26.30;99.90
47618;DHT22;33336;36.728;-4.414;2023-06-04T12:15:20;26.60;99.90
47618;DHT22;33336;36.728;-4.414;2023-06-04T12:20:33;26.70;99.90
47618;DHT22;33336;36.728;-4.414;2023-06-04T12:25:37;27.20;99.90
47618;DHT22;33336;36.728;-4.414;2023-06-04T12:30:41;26.40;99.90
47618;DHT22;33336;36.728;-4.414;2023-06-04T12:35:44;26.80;99.90
47618;DHT22;33336;36.728;-4.414;2023-06-04T12:40:47;26.10;99.90
47618;DHT22;33336;36.728;-4.414;2023-06-04T12:45:52;26.80;99.90
47618;DHT22;33336;36.728;-4.414;2023-06-04T12:50:54;27.00;99.90
47618;DHT22;33336;36.728;-4.414;2023-06-04T12:55:58;26.90;99.90
47618;DHT22;33336;36.728;-4.414;2023-06-04T13:01:03;27.60;99.90
47618;DHT22;33336;36.728;-4.414;2023-06-04T13:06:07;27.30;99.90
47618;DHT22;33336;36.728;-4.414;2023-06-04T13:11:10;28.20;99.90
47618;DHT22;33336;36.728;-4.414;2023-06-04T13:16:14;28.00;99.90
47618;DHT22;33336;36.728;-4.414;2023-06-04T13:21:17;28.20;99.90
47618;DHT22;33336;36.728;-4.414;2023-06-04T13:26:22;28.00;99.90
47618;DHT22;33336;36.728;-4.414;2023-06-04T13:31:26;28.90;99.90
47618;DHT22;33336;36.728;-4.414;2023-06-04T13:36:29;27.50;99.90
47618;DHT22;33336;36.728;-4.414;2023-06-04T13:41:32;27.70;99.90
47618;DHT22;33336;36.728;-4.414;2023-06-04T13:46:36;28.20;99.90
47618;DHT22;33336;36.728;-4.414;2023-06-04T13:51:39;28.90;99.90
47618;DHT22;33336;36.728;-4.414;2023-06-04T13:56:44;29.50;99.50
47618;DHT22;33336;36.728;-4.414;2023-06-04T14:01:48;29.00;98.70
47618;DHT22;33336;36.728;-4.414;2023-06-04T14:06:51;28.10;99.70
47618;DHT22;33336;36.728;-4.414;2023-06-04T14:11:54;27.70;99.90
47618;DHT22;33336;36.728;-4.414;2023-06-04T14:16:58;28.20;99.80
47618;DHT22;33336;36.728;-4.414;2023-06-04T14:22:01;27.90;99.90
47618;DHT22;33336;36.728;-4.414;2023-06-04T14:27:05;28.20;99.90
47618;DHT22;33336;36.728;-4.414;2023-06-04T14:32:13;29.20;99.90
47618;DHT22;33336;36.728;-4.414;2023-06-04T14:37:16;28.70;99.90
47618;DHT22;33336;36.728;-4.414;2023-06-04T14:42:20;28.70;99.90
47618;DHT22;33336;36.728;-4.414;2023-06-04T14:47:25;29.30;99.10
47618;DHT22;33336;36.728;-4.414;2023-06-04T14:52:28;30.60;98.80
47618;DHT22;33336;36.728;-4.414;2023-06-04T14:57:32;29.90;98.00
47618;DHT22;33336;36.728;-4.414;2023-06-04T15:02:39;29.60;98.50
47618;DHT22;33336;36.728;-4.414;2023-06-04T15:07:43;29.10;99.20
47618;DHT22;33336;36.728;-4.414;2023-06-04T15:12:46;30.80;98.40
47618;DHT22;33336;36.728;-4.414;2023-06-04T15:17:51;29.70;98.40
47618;DHT22;33336;36.728;-4.414;2023-06-04T15:22:54;30.00;98.40
47618;DHT22;33336;36.728;-4.414;2023-06-04T15:27:58;29.60;98.90
47618;DHT22;33336;36.728;-4.414;2023-06-04T15:33:03;29.30;99.80
47618;DHT22;33336;36.728;-4.414;2023-06-04T15:38:06;29.90;99.20
47618;DHT22;33336;36.728;-4.414;2023-06-04T15:43:09;30.50;98.80
47618;DHT22;33336;36.728;-4.414;2023-06-04T15:48:13;30.90;97.10
47618;DHT22;33336;36.728;-4.414;2023-06-04T15:53:16;32.70;95.70
47618;DHT22;33336;36.728;-4.414;2023-06-04T15:58:20;34.90;93.60
47618;DHT22;33336;36.728;-4.414;2023-06-04T16:03:24;37.50;92.30
47618;DHT22;33336;36.728;-4.414;2023-06-04T16:08:28;34.10;92.80
47618;DHT22;33336;36.728;-4.414;2023-06-04T16:13:31;35.00;92.30
47618;DHT22;33336;36.728;-4.414;2023-06-04T16:18:38;37.40;90.60
47618;DHT22;33336;36.728;-4.414;2023-06-04T16:23:40;34.60;90.90
47618;DHT22;33336;36.728;-4.414;2023-06-04T16:28:44;35.90;90.80
47618;DHT22;33336;36.728;-4.414;2023-06-04T16:33:48;37.90;88.80
47618;DHT22;33336;36.728;-4.414;2023-06-04T16:38:51;36.90;88.80
47618;DHT22;33336;36.728;-4.414;2023-06-04T16:43:54;38.30;85.60
47618;DHT22;33336;36.728;-4.414;2023-06-04T16:48:58;39.70;85.10
47618;DHT22;33336;36.728;-4.414;2023-06-04T16:54:04;38.90;84.00
47618;DHT22;33336;36.728;-4.414;2023-06-04T16:59:10;37.40;84.20
47618;DHT22;33336;36.728;-4.414;2023-06-04T17:04:15;39.10;84.60
47618;DHT22;33336;36.728;-4.414;2023-06-04T17:09:18;38.60;85.10
47618;DHT22;33336;36.728;-4.414;2023-06-04T17:14:22;36.60;85.60
47618;DHT22;33336;36.728;-4.414;2023-06-04T17:19:26;34.80;87.20
47618;DHT22;33336;36.728;-4.414;2023-06-04T17:24:29;34.80;89.20
47618;DHT22;33336;36.728;-4.414;2023-06-04T17:29:32;35.20;89.40
47618;DHT22;33336;36.728;-4.414;2023-06-04T17:34:36;35.10;90.40
47618;DHT22;33336;36.728;-4.414;2023-06-04T17:39:39;37.70;87.00
47618;DHT22;33336;36.728;-4.414;2023-06-04T17:44:43;36.80;85.30
47618;DHT22;33336;36.728;-4.414;2023-06-04T17:49:48;34.40;89.80
47618;DHT22;33336;36.728;-4.414;2023-06-04T17:54:51;36.10;89.00
47618;DHT22;33336;36.728;-4.414;2023-06-04T17:59:54;36.00;85.90
47618;DHT22;33336;36.728;-4.414;2023-06-04T18:04:58;37.60;87.70
47618;DHT22;33336;36.728;-4.414;2023-06-04T18:10:02;39.90;82.90
47618;DHT22;33336;36.728;-4.414;2023-06-04T18:15:08;38.80;84.20
47618;DHT22;33336;36.728;-4.414;2023-06-04T18:20:14;35.90;86.60
47618;DHT22;33336;36.728;-4.414;2023-06-04T18:25:17;33.60;90.40
47618;DHT22;33336;36.728;-4.414;2023-06-04T18:30:21;33.90;90.40
47618;DHT22;33336;36.728;-4.414;2023-06-04T18:35:28;34.00;90.60
47618;DHT22;33336;36.728;-4.414;2023-06-04T18:40:33;35.70;89.30
47618;DHT22;33336;36.728;-4.414;2023-06-04T18:45:36;35.10;89.20
47618;DHT22;33336;36.728;-4.414;2023-06-04T18:50:41;33.30;90.50
47618;DHT22;33336;36.728;-4.414;2023-06-04T18:55:46;32.80;91.30
47618;DHT22;33336;36.728;-4.414;2023-06-04T19:00:51;32.20;91.90
47618;DHT22;33336;36.728;-4.414;2023-06-04T19:05:55;32.80;91.60
47618;DHT22;33336;36.728;-4.414;2023-06-04T19:10:59;31.20;92.80
47618;DHT22;33336;36.728;-4.414;2023-06-04T19:16:02;30.50;93.50
47618;DHT22;33336;36.728;-4.414;2023-06-04T19:21:07;30.10;93.80
47618;DHT22;33336;36.728;-4.414;2023-06-04T19:26:10;30.20;94.00
47618;DHT22;33336;36.728;-4.414;2023-06-04T19:31:13;29.20;95.10
47618;DHT22;33336;36.728;-4.414;2023-06-04T19:36:17;27.50;98.00
47618;DHT22;33336;36.728;-4.414;2023-06-04T19:41:21;28.00;97.40
47618;DHT22;33336;36.728;-4.414;2023-06-04T19:46:25;28.30;96.90
47618;DHT22;33336;36.728;-4.414;2023-06-04T19:51:30;27.70;97.40
47618;DHT22;33336;36.728;-4.414;2023-06-04T19:56:33;27.40;98.70
47618;DHT22;33336;36.728;-4.414;2023-06-04T20:01:40;27.20;98.90
47618;DHT22;33336;36.728;-4.414;2023-06-04T20:06:45;26.60;99.90
47618;DHT22;33336;36.728;-4.414;2023-06-04T20:11:52;26.90;99.90
47618;DHT22;33336;36.728;-4.414;2023-06-04T20:16:55;26.80;99.90
47618;DHT22;33336;36.728;-4.414;2023-06-04T20:22:00;27.00;99.90
47618;DHT22;33336;36.728;-4.414;2023-06-04T20:27:03;26.20;99.90
47618;DHT22;33336;36.728;-4.414;2023-06-04T20:32:07;25.90;99.90
47618;DHT22;33336;36.728;-4.414;2023-06-04T20:37:11;25.50;99.90
47618;DHT22;33336;36.728;-4.414;2023-06-04T20:42:15;25.40;99.90
47618;DHT22;33336;36.728;-4.414;2023-06-04T20:47:20;25.60;99.90
47618;DHT22;33336;36.728;-4.414;2023-06-04T20:52:26;25.60;99.90
47618;DHT22;33336;36.728;-4.414;2023-06-04T20:57:29;25.70;99.90
47618;DHT22;33336;36.728;-4.414;2023-06-04T21:02:34;25.90;99.90
47618;DHT22;33336;36.728;-4.414;2023-06-04T21:07:38;26.00;99.90
47618;DHT22;33336;36.728;-4.414;2023-06-04T21:12:45;25.80;99.90
47618;DHT22;33336;36.728;-4.414;2023-06-04T21:17:48;25.90;99.90
47618;DHT22;33336;36.728;-4.414;2023-06-04T21:22:52;24.50;99.90
47618;DHT22;33336;36.728;-4.414;2023-06-04T21:27:55;24.70;99.90
47618;DHT22;33336;36.728;-4.414;2023-06-04T21:32:58;24.40;99.90
47618;DHT22;33336;36.728;-4.414;2023-06-04T21:38:03;24.80;99.90
47618;DHT22;33336;36.728;-4.414;2023-06-04T21:43:07;25.10;99.90
47618;DHT22;33336;36.728;-4.414;2023-06-04T21:48:10;24.80;99.90
47618;DHT22;33336;36.728;-4.414;2023-06-04T21:53:15;24.70;99.90
47618;DHT22;33336;36.728;-4.414;2023-06-04T21:58:18;24.20;99.90
47618;DHT22;33336;36.728;-4.414;2023-06-04T22:03:22;23.70;99.90
47618;DHT22;33336;36.728;-4.414;2023-06-04T22:08:26;23.70;99.90
47618;DHT22;33336;36.728;-4.414;2023-06-04T22:13:30;23.70;99.90
47618;DHT22;33336;36.728;-4.414;2023-06-04T22:18:33;23.80;99.90
47618;DHT22;33336;36.728;-4.414;2023-06-04T22:23:44;24.20;99.90
47618;DHT22;33336;36.728;-4.414;2023-06-04T22:28:54;24.00;99.90
47618;DHT22;33336;36.728;-4.414;2023-06-04T22:33:58;23.30;99.90
47618;DHT22;33336;36.728;-4.414;2023-06-04T22:39:02;23.20;99.90
47618;DHT22;33336;36.728;-4.414;2023-06-04T22:44:06;23.40;99.90
47618;DHT22;33336;36.728;-4.414;2023-06-04T22:49:09;23.40;99.90
47618;DHT22;33336;36.728;-4.414;2023-06-04T22:54:13;24.00;99.90
47618;DHT22;33336;36.728;-4.414;2023-06-04T22:59:16;23.80;99.90
47618;DHT22;33336;36.728;-4.414;2023-06-04T23:04:20;24.10;99.90
47618;DHT22;33336;36.728;-4.414;2023-06-04T23:09:24;24.30;99.90
47618;DHT22;33336;36.728;-4.414;2023-06-04T23:14:28;24.40;99.90
47618;DHT22;33336;36.728;-4.414;2023-06-04T23:19:31;24.00;99.90
47618;DHT22;33336;36.728;-4.414;2023-06-04T23:24:35;24.30;99.90
47618;DHT22;33336;36.728;-4.414;2023-06-04T23:29:38;24.50;99.90
47618;DHT22;33336;36.728;-4.414;2023-06-04T23:34:42;23.90;99.90
47618;DHT22;33336;36.728;-4.414;2023-06-04T23:39:46;23.30;99.90
47618;DHT22;33336;36.728;-4.414;2023-06-04T23:44:50;23.50;99.90
47618;DHT22;33336;36.728;-4.414;2023-06-04T23:49:53;23.80;99.90
47618;DHT22;33336;36.728;-4.414;2023-06-04T23:54:57;23.90;99.90
